Meteo Giornale » Osservazioni meteo Italia » Rieti

ore: 02:50 - Osservazioni Meteo Rieti
Lat. 42° 25' N Lon. 12° 51' E Alt. 389 metri s.l.m.

sereno Europe/Rome

10 °C

Sereno

Temp. 24 Ore

8 °C

25 °C

Nord

0 Km/h

Dew point 9 °C

Umidità 93 %

Visibilità  10 Km

Il sole sorge alle ore 07:01

Il sole tramonta alle ore 18:55

Data e Ora Cielo e Fenomeni T °C DP °C Um. % Pres. hPa Vis. km Vento km/h
Oggi h: 02:50 sereno Sereno 10 9 93 1026 10 N 0
Oggi h: 01:50 sereno Sereno 11 10 93 1026 10 N 3.7
Oggi h: 00:50 sereno Sereno 11 9 87 1025 10 N 0
Ieri h: 23:50 sereno Sereno 14 10 76 1025 10 N 3.7
Ieri h: 22:50 sereno Sereno 13 10 81 1025 10 N 0
Ieri h: 21:50 sereno Sereno 14 10 76 1024 10 E/SE 9.3
Ieri h: 20:50 sereno Sereno 16 11 72 1023 10 N/NE 7.4
Ieri h: 19:50 sereno Sereno 17 12 72 1022 10 N 5.5
Ieri h: 18:50 sereno Sereno 21 11 52 1022 10 N 0
Ieri h: 17:50 sereno Sereno 23 11 46 1021 10 NO 9.3
Ieri h: 16:50 sereno Sereno 25 10 38 1021 10 N 3.7
Ieri h: 15:50 sereno Sereno 24 10 41 1021 10 O/NO 7.4
Ieri h: 14:50 sereno Sereno 24 10 41 1021 10 N 7.4
Ieri h: 13:50 sereno Sereno 23 11 46 1021 10 N 3.7
Ieri h: 12:50 sereno Sereno 22 10 46 1022 10 N 3.7
Ieri h: 11:50 sereno Sereno 20 12 59 1022 10 N 5.5
Ieri h: 10:50 sereno Sereno 19 11 59 1022 10 N 0
Ieri h: 09:50 sereno Sereno 15 12 82 1022 10 N 3.7
Ieri h: 08:50 poco_nuvoloso Poco Nuvoloso 11 11 100 1022 3 N 3.7
Ieri h: 07:50 poco_nuvoloso Poco Nuvoloso 9 6 81 1021 10 N 0
Ieri h: 07:13 foschia Foschia 8 8 100 1021 1 N 0
Ieri h: 07:03 foschia Foschia 8 8 100 1021 2 N 0
Ieri h: 06:55 foschia Foschia 9 6 81 1021 5 N 0
Ieri h: 06:50 sereno Sereno 9 9 100 1020 10 N 0
Ieri h: 05:50 sereno Sereno 9 8 93 1020 10 N 0
Ieri h: 04:50 sereno Sereno 10 9 93 1020 10 N 0
Ieri h: 03:50 sereno Sereno 11 10 93 1020 10 N 0